Time;durP1;ratioP1;P1;durP2;ratioP2;P2;SDS_P1;SDS_P2;PMS_P1;PMS_P2;Temp;Humidity;BMP_temperature;BMP_pressure;BME280_temperature;BME280_humidity;BME280_pressure;Samples;Min_cycle;Max_cycle;Signal;HPM_P1;HPM_P2
2021/03/06 00:02:55;;;;;;;41.83;19.92;;;;;;;0.02;60.79;101235.45;147751;1147;104473;-76
2021/03/06 00:05:58;;;;;;;64.77;31.37;;;;;;;-0.07;61.03;101236.66;147593;1147;104602;-74
2021/03/06 00:09:02;;;;;;;73.60;39.20;;;;;;;-0.09;60.42;101235.02;147745;1147;104464;-75
2021/03/06 00:12:06;;;;;;;53.50;28.52;;;;;;;-0.11;61.06;101240.32;147711;1147;104456;-75
2021/03/06 00:15:11;;;;;;;78.35;34.23;;;;;;;-0.12;60.60;101232.50;147655;1147;104580;-75
2021/03/06 00:18:15;;;;;;;49.77;24.12;;;;;;;-0.20;61.01;101231.03;147768;1146;104546;-75
2021/03/06 00:21:18;;;;;;;48.33;25.02;;;;;;;-0.23;60.81;101238.19;147662;1147;104472;-73
2021/03/06 00:24:23;;;;;;;43.20;20.88;;;;;;;-0.28;60.38;101240.13;147326;1147;104473;-78
2021/03/06 00:27:26;;;;;;;40.12;17.73;;;;;;;-0.35;60.96;101238.65;147446;1147;104866;-79
2021/03/06 00:30:30;;;;;;;44.75;19.60;;;;;;;-0.41;60.61;101253.69;147360;1147;104550;-78
2021/03/06 00:33:34;;;;;;;33.73;15.90;;;;;;;-0.43;61.35;101257.30;147605;1146;104552;-77
2021/03/06 00:36:37;;;;;;;34.08;17.20;;;;;;;-0.48;60.80;101252.23;147745;1148;104476;-75
2021/03/06 00:39:40;;;;;;;37.35;16.30;;;;;;;-0.50;61.94;101253.19;147771;1147;104383;-78
2021/03/06 00:42:43;;;;;;;31.62;15.35;;;;;;;-0.48;61.04;101246.99;147774;1147;104626;-74
2021/03/06 00:45:47;;;;;;;36.80;16.97;;;;;;;-0.50;60.90;101243.58;147736;1147;104464;-75
2021/03/06 00:48:50;;;;;;;44.23;18.90;;;;;;;-0.54;61.18;101241.11;147712;1147;104898;-75
2021/03/06 00:51:53;;;;;;;36.23;16.87;;;;;;;-0.58;61.93;101245.61;147282;1146;104549;-79
2021/03/06 00:54:57;;;;;;;30.60;13.88;;;;;;;-0.63;60.87;101242.33;147715;1147;104546;-75
2021/03/06 00:58:00;;;;;;;32.70;15.23;;;;;;;-0.68;61.53;101244.25;147767;1146;104609;-76
2021/03/06 01:01:06;;;;;;;28.20;12.53;;;;;;;-0.74;61.27;101236.63;147655;1147;104476;-77
2021/03/06 01:04:09;;;;;;;43.92;19.12;;;;;;;-0.77;61.94;101234.98;147487;1147;104549;-79
2021/03/06 01:07:13;;;;;;;40.28;18.82;;;;;;;-0.77;62.04;101242.84;147657;1147;104482;-75
2021/03/06 01:10:21;;;;;;;35.70;16.02;;;;;;;-0.77;61.91;101244.58;147753;1147;104547;-76
2021/03/06 01:13:25;;;;;;;31.27;16.12;;;;;;;-0.78;61.83;101248.13;147751;1147;104565;-78
2021/03/06 01:16:28;;;;;;;35.25;16.17;;;;;;;-0.82;61.62;101247.38;147727;1147;104529;-77
2021/03/06 01:19:31;;;;;;;28.15;13.25;;;;;;;-0.83;62.39;101245.66;147770;1147;104470;-77
2021/03/06 01:22:35;;;;;;;34.18;14.55;;;;;;;-0.89;62.18;101241.49;147705;1146;104468;-75
2021/03/06 01:25:39;;;;;;;56.83;20.92;;;;;;;-0.92;62.17;101244.24;147740;1147;104535;-78
2021/03/06 01:28:43;;;;;;;60.40;21.77;;;;;;;-0.90;62.07;101241.58;147765;1147;104546;-76
2021/03/06 01:31:47;;;;;;;48.48;19.32;;;;;;;-0.90;61.87;101249.44;147769;1148;104520;-76
2021/03/06 01:34:50;;;;;;;41.25;18.10;;;;;;;-0.87;62.54;101249.30;147713;1147;104556;-80
2021/03/06 01:37:53;;;;;;;31.37;13.93;;;;;;;-0.94;62.57;101248.69;147756;1145;104525;-77
2021/03/06 01:40:57;;;;;;;45.35;20.08;;;;;;;-1.00;62.68;101248.91;147623;1147;104549;-78
2021/03/06 01:44:00;;;;;;;43.45;17.07;;;;;;;-0.99;62.19;101250.61;147717;1147;104546;-82
2021/03/06 01:47:03;;;;;;;34.40;15.00;;;;;;;-1.00;63.06;101254.15;147782;1147;104445;-78
2021/03/06 01:50:09;;;;;;;33.60;14.80;;;;;;;-1.01;61.89;101248.03;147758;1147;104535;-77
2021/03/06 01:53:14;;;;;;;34.53;15.10;;;;;;;-0.97;62.20;101253.17;147776;1147;104557;-78
2021/03/06 01:56:17;;;;;;;29.47;11.27;;;;;;;-0.95;61.95;101251.36;147795;1147;104453;-75
2021/03/06 01:59:21;;;;;;;28.25;11.80;;;;;;;-0.97;61.96;101248.78;147414;1147;104633;-79
2021/03/06 02:02:26;;;;;;;27.22;12.73;;;;;;;-0.97;62.97;101243.55;147846;1147;104401;-76
2021/03/06 02:05:29;;;;;;;24.55;10.75;;;;;;;-0.95;62.53;101246.96;147758;1147;104448;-76
2021/03/06 02:08:32;;;;;;;32.08;12.28;;;;;;;-0.94;62.75;101243.45;147687;1147;104535;-76
2021/03/06 02:11:42;;;;;;;27.75;11.83;;;;;;;-0.92;62.34;101243.40;147457;1147;104550;-75
2021/03/06 02:15:09;;;;;;;27.90;12.53;;;;;;;-0.92;62.39;101239.00;147676;1147;104553;-76
2021/03/06 02:18:18;;;;;;;29.85;13.00;;;;;;;-0.93;61.32;101247.76;147618;1148;104666;-75
2021/03/06 02:21:34;;;;;;;31.80;14.17;;;;;;;-0.95;62.29;101249.58;147538;1148;104463;-79
2021/03/06 02:24:54;;;;;;;26.17;11.35;;;;;;;-0.97;62.61;101256.64;147732;1147;104546;-74
2021/03/06 02:28:13;;;;;;;40.98;16.42;;;;;;;-1.04;62.89;101260.37;147791;1147;104580;-76
2021/03/06 02:31:17;;;;;;;47.33;20.27;;;;;;;-1.09;61.84;101250.08;147547;1147;104545;-74
2021/03/06 02:34:29;;;;;;;54.25;20.08;;;;;;;-1.16;62.54;101253.81;147736;1147;104547;-80
2021/03/06 02:37:36;;;;;;;28.60;12.73;;;;;;;-1.16;62.70;101271.30;147439;1148;104547;-77
2021/03/06 02:40:42;;;;;;;24.07;9.60;;;;;;;-1.21;62.64;101269.70;147303;1147;104473;-76
2021/03/06 02:43:45;;;;;;;23.67;10.53;;;;;;;-1.32;61.84;101269.20;147305;1147;104571;-77
2021/03/06 02:46:48;;;;;;;27.15;10.08;;;;;;;-1.30;62.69;101277.02;147272;1147;104555;-82
2021/03/06 02:49:56;;;;;;;24.40;10.95;;;;;;;-1.31;62.60;101265.70;147291;1147;104544;-85
2021/03/06 02:52:59;;;;;;;31.82;11.45;;;;;;;-1.29;61.82;101279.59;147495;1147;104522;-75
2021/03/06 02:56:02;;;;;;;24.17;9.57;;;;;;;-1.31;63.25;101270.93;147538;1147;104547;-80
2021/03/06 02:59:18;;;;;;;31.37;11.70;;;;;;;-1.32;62.28;101276.22;147678;1146;104478;-79
2021/03/06 03:02:28;;;;;;;40.60;17.02;;;;;;;-1.33;62.20;101284.95;147830;1147;104521;-79
2021/03/06 03:05:37;;;;;;;31.75;12.63;;;;;;;-1.36;63.34;101290.31;147800;1147;104888;-84
2021/03/06 03:08:50;;;;;;;28.42;12.10;;;;;;;-1.37;63.32;101289.44;147892;1148;104568;-81
2021/03/06 03:12:00;;;;;;;36.28;13.75;;;;;;;-1.41;62.51;101293.07;147841;1147;104447;-84
2021/03/06 03:15:10;;;;;;;30.40;11.45;;;;;;;-1.39;62.74;101293.88;147852;1147;104452;-80
2021/03/06 03:18:21;;;;;;;22.42;9.05;;;;;;;-1.35;62.18;101292.86;147830;1147;104610;-76
2021/03/06 03:21:28;;;;;;;21.80;9.90;;;;;;;-1.33;61.96;101303.28;147760;1147;104559;-75
2021/03/06 03:24:36;;;;;;;18.50;8.33;;;;;;;-1.34;62.38;101306.83;147719;1147;104489;-74
2021/03/06 03:27:42;;;;;;;19.75;9.70;;;;;;;-1.35;62.77;101295.48;147673;1147;104466;-74
2021/03/06 03:30:46;;;;;;;20.70;10.05;;;;;;;-1.34;62.25;101297.20;147817;1146;104552;-78
2021/03/06 03:33:50;;;;;;;19.42;8.75;;;;;;;-1.35;62.29;101295.48;147824;1147;104611;-79
2021/03/06 03:36:54;;;;;;;17.40;8.28;;;;;;;-1.33;62.14;101308.52;147810;1147;104561;-81
2021/03/06 03:39:58;;;;;;;21.60;10.35;;;;;;;-1.36;62.19;101309.48;147512;1147;104460;-79
2021/03/06 03:43:02;;;;;;;20.30;8.48;;;;;;;-1.35;61.74;101316.42;147620;1146;104565;-77
2021/03/06 03:46:06;;;;;;;18.25;8.28;;;;;;;-1.35;63.31;101319.04;147751;1147;104555;-80
2021/03/06 03:49:15;;;;;;;19.05;7.75;;;;;;;-1.39;62.11;101318.31;147749;1147;104533;-77
2021/03/06 03:52:18;;;;;;;18.57;7.50;;;;;;;-1.37;63.33;101328.70;147625;1147;104552;-75
2021/03/06 03:55:22;;;;;;;20.67;9.53;;;;;;;-1.36;63.42;101330.44;147555;1147;104431;-75
2021/03/06 03:58:26;;;;;;;20.48;8.13;;;;;;;-1.36;63.02;101329.59;147649;1146;104546;-76
2021/03/06 04:01:37;;;;;;;16.90;7.25;;;;;;;-1.40;62.07;101336.69;147614;1147;104546;-78
2021/03/06 04:04:41;;;;;;;16.87;7.50;;;;;;;-1.42;62.94;101333.26;147726;1148;104470;-76
2021/03/06 04:07:46;;;;;;;18.00;8.07;;;;;;;-1.45;62.82;101342.05;147694;1147;104546;-78
2021/03/06 04:10:49;;;;;;;19.02;9.68;;;;;;;-1.46;62.33;101334.27;147490;1147;104547;-75
2021/03/06 04:13:53;;;;;;;19.57;8.98;;;;;;;-1.46;62.27;101342.13;147697;1147;104548;-76
2021/03/06 04:16:56;;;;;;;35.10;18.27;;;;;;;-1.49;62.54;101345.67;147324;1147;104472;-78
2021/03/06 04:19:59;;;;;;;28.70;15.40;;;;;;;-1.52;63.16;101350.15;147453;1147;104537;-76
2021/03/06 04:23:02;;;;;;;70.10;40.78;;;;;;;-1.54;62.29;101339.75;147477;1147;104492;-83
2021/03/06 04:26:05;;;;;;;63.20;33.63;;;;;;;-1.54;62.11;101341.48;147730;1146;104528;-79
2021/03/06 04:29:09;;;;;;;72.13;40.63;;;;;;;-1.54;63.02;101346.72;147732;1147;104546;-78
2021/03/06 04:32:12;;;;;;;51.02;30.00;;;;;;;-1.55;62.81;101338.02;147722;1147;104546;-78
2021/03/06 04:35:15;;;;;;;61.60;31.15;;;;;;;-1.57;63.54;101352.08;147729;1147;104511;-82
2021/03/06 04:38:18;;;;;;;35.37;15.57;;;;;;;-1.65;63.62;101357.55;147831;1147;104547;-79
2021/03/06 04:41:21;;;;;;;79.45;35.20;;;;;;;-1.68;63.73;101357.62;147794;1147;104876;-78
2021/03/06 04:44:25;;;;;;;76.05;34.30;;;;;;;-1.75;63.00;101367.45;147756;1147;104530;-78
2021/03/06 04:47:28;;;;;;;285.85;105.05;;;;;;;-1.75;63.95;101359.59;147757;1147;104547;-79
2021/03/06 04:50:31;;;;;;;147.53;64.67;;;;;;;-1.68;62.87;101368.95;147806;1147;104628;-79
2021/03/06 04:53:34;;;;;;;104.15;46.55;;;;;;;-1.73;62.31;101372.61;147780;1148;104548;-74
2021/03/06 04:56:38;;;;;;;187.60;76.95;;;;;;;-1.75;63.53;101372.68;147712;1148;104556;-77
2021/03/06 04:59:41;;;;;;;672.30;321.52;;;;;;;-1.74;63.52;101370.91;147710;1147;104549;-78
2021/03/06 05:02:44;;;;;;;453.45;201.65;;;;;;;-1.72;62.55;101372.56;147444;1148;104472;-78
2021/03/06 05:05:47;;;;;;;546.70;268.82;;;;;;;-1.67;63.04;101378.52;147756;1147;104633;-76
2021/03/06 05:08:51;;;;;;;458.12;195.75;;;;;;;-1.64;63.81;101361.86;147816;1147;104512;-76
2021/03/06 05:11:54;;;;;;;441.75;186.22;;;;;;;-1.62;63.95;101366.16;147713;1147;104476;-76
2021/03/06 05:14:57;;;;;;;550.83;206.95;;;;;;;-1.60;64.06;101368.70;147749;1148;104472;-75
2021/03/06 05:18:01;;;;;;;393.65;135.70;;;;;;;-1.63;62.68;101364.44;147795;1147;104570;-74
2021/03/06 05:21:04;;;;;;;388.87;129.00;;;;;;;-1.62;62.86;101374.02;147731;1147;104610;-76
2021/03/06 05:24:08;;;;;;;705.03;298.30;;;;;;;-1.62;62.73;101371.40;147839;1147;104545;-74
2021/03/06 05:27:12;;;;;;;632.47;249.83;;;;;;;-1.62;64.00;101365.28;147772;1147;104515;-72
2021/03/06 05:30:16;;;;;;;341.83;107.77;;;;;;;-1.60;63.82;101366.97;147613;1147;104496;-72
2021/03/06 05:33:19;;;;;;;547.80;202.65;;;;;;;-1.60;63.52;101369.59;147778;1148;104469;-74
2021/03/06 05:36:23;;;;;;;594.67;203.52;;;;;;;-1.59;62.66;101366.05;147984;1147;104601;-74
2021/03/06 05:39:27;;;;;;;430.25;136.47;;;;;;;-1.59;62.97;101370.44;147481;1147;104473;-76
2021/03/06 05:42:30;;;;;;;394.20;122.10;;;;;;;-1.55;64.07;101361.58;147484;1147;104467;-73
2021/03/06 05:45:34;;;;;;;294.02;90.07;;;;;;;-1.51;63.08;101362.34;147736;1147;104547;-73
2021/03/06 05:48:38;;;;;;;353.00;107.27;;;;;;;-1.47;63.80;101374.42;147786;1148;104493;-74
2021/03/06 05:51:41;;;;;;;508.32;167.05;;;;;;;-1.42;64.03;101377.77;147684;1147;104627;-78
2021/03/06 05:54:48;;;;;;;373.35;106.87;;;;;;;-1.37;64.17;101378.45;147789;1147;104543;-79
2021/03/06 05:57:52;;;;;;;674.35;188.95;;;;;;;-1.33;63.34;101382.68;147736;1147;104553;-73
2021/03/06 06:00:56;;;;;;;562.20;170.40;;;;;;;-1.27;63.47;101392.10;147714;1146;104534;-76
2021/03/06 06:04:02;;;;;;;468.77;145.92;;;;;;;-1.23;63.06;101389.36;147695;1146;104547;-74
2021/03/06 06:07:06;;;;;;;755.60;222.67;;;;;;;-1.17;63.63;101395.28;147328;1147;104644;-74
2021/03/06 06:10:12;;;;;;;295.57;82.83;;;;;;;-1.13;64.05;101389.06;147508;1147;104588;-78
2021/03/06 06:13:15;;;;;;;308.07;107.70;;;;;;;-1.10;63.61;101395.03;147842;1148;104454;-72
2021/03/06 06:16:19;;;;;;;187.70;58.23;;;;;;;-1.08;63.98;101397.60;147653;1147;104543;-74
2021/03/06 06:19:23;;;;;;;303.98;95.92;;;;;;;-1.01;63.67;101409.60;147861;1147;104479;-73
2021/03/06 06:22:27;;;;;;;330.47;119.83;;;;;;;-0.97;64.56;101413.83;147385;1148;104540;-75
2021/03/06 06:25:34;;;;;;;82.87;33.80;;;;;;;-0.93;64.43;101412.81;147841;1147;104874;-73
2021/03/06 06:28:49;;;;;;;417.10;174.55;;;;;;;-0.93;64.57;101418.05;147845;1147;104468;-73
2021/03/06 06:31:56;;;;;;;159.37;63.70;;;;;;;-0.89;64.79;101413.58;147701;1147;104461;-76
2021/03/06 06:35:02;;;;;;;75.25;34.27;;;;;;;-0.88;64.54;101410.91;147833;1147;104538;-75
2021/03/06 06:38:07;;;;;;;288.05;118.70;;;;;;;-0.82;64.18;101421.18;148919;1148;104722;-79
2021/03/06 06:41:10;;;;;;;144.47;62.67;;;;;;;-0.74;64.20;101418.30;147808;1147;104545;-75
2021/03/06 06:44:14;;;;;;;136.05;54.55;;;;;;;-0.67;64.46;101426.83;147748;1147;104461;-76
2021/03/06 06:47:18;;;;;;;173.37;67.77;;;;;;;-0.57;63.47;101420.34;147773;1147;104469;-74
2021/03/06 06:50:33;;;;;;;153.57;68.07;;;;;;;-0.49;63.86;101420.93;147738;1147;104552;-76
2021/03/06 06:53:36;;;;;;;65.40;29.30;;;;;;;-0.41;63.89;101421.51;147752;1146;104640;-75
2021/03/06 06:56:39;;;;;;;170.95;73.07;;;;;;;-0.33;63.47;101433.50;147788;1147;104487;-77
2021/03/06 06:59:55;;;;;;;175.57;74.93;;;;;;;-0.27;63.86;101426.29;147804;1147;104462;-75
2021/03/06 07:03:00;;;;;;;118.15;48.78;;;;;;;-0.19;64.05;101426.02;147770;1147;104457;-77
2021/03/06 07:06:13;;;;;;;102.10;44.77;;;;;;;-0.12;64.20;101435.35;147399;1148;104524;-75
2021/03/06 07:09:17;;;;;;;81.87;38.28;;;;;;;-0.05;63.71;101428.13;147534;1147;104556;-75
2021/03/06 07:12:22;;;;;;;84.83;38.55;;;;;;;-0.03;64.07;101432.40;147760;1147;104546;-75
2021/03/06 07:15:27;;;;;;;27.35;13.45;;;;;;;0.04;63.81;101437.42;147722;1147;104585;-81
2021/03/06 07:18:30;;;;;;;46.60;23.55;;;;;;;0.10;63.95;101431.97;147647;1147;104455;-80
2021/03/06 07:21:48;;;;;;;29.12;14.60;;;;;;;0.15;63.97;101430.00;147440;1147;104596;-80
2021/03/06 07:24:51;;;;;;;22.60;10.78;;;;;;;0.23;63.49;101433.19;147657;1147;104556;-81
2021/03/06 07:27:55;;;;;;;32.08;16.30;;;;;;;0.28;63.43;101435.66;147723;1148;104457;-76
2021/03/06 07:31:00;;;;;;;31.27;15.48;;;;;;;0.35;64.16;101430.12;147784;1147;104473;-79
2021/03/06 07:34:04;;;;;;;31.23;16.12;;;;;;;0.44;63.73;101430.67;147739;1148;104543;-78
2021/03/06 07:37:09;;;;;;;28.45;12.93;;;;;;;0.50;63.25;101431.30;147609;1147;104538;-79
2021/03/06 07:40:14;;;;;;;20.50;9.80;;;;;;;0.54;63.07;101432.02;147635;1146;104544;-78
2021/03/06 07:43:22;;;;;;;21.77;10.60;;;;;;;0.55;63.48;101433.74;147885;1147;104470;-77
2021/03/06 07:46:26;;;;;;;30.30;15.50;;;;;;;0.62;63.09;101435.22;147848;1147;104583;-78
2021/03/06 07:49:33;;;;;;;28.25;12.82;;;;;;;0.68;63.43;101428.88;147733;1147;104470;-79
2021/03/06 07:52:39;;;;;;;53.50;23.50;;;;;;;0.70;63.23;101429.66;147818;1147;104547;-73
2021/03/06 07:55:43;;;;;;;87.62;32.65;;;;;;;0.74;62.95;101434.72;147766;1147;104535;-74
2021/03/06 07:58:51;;;;;;;25.80;11.88;;;;;;;0.76;62.69;101443.39;147799;1147;104821;-74
2021/03/06 08:01:54;;;;;;;234.87;81.78;;;;;;;0.78;63.38;101448.59;147803;1147;104450;-81
2021/03/06 08:04:58;;;;;;;128.85;44.15;;;;;;;0.92;62.73;101438.38;147447;1146;104565;-76
2021/03/06 08:08:01;;;;;;;100.97;37.95;;;;;;;1.04;62.64;101439.67;147651;1146;104545;-75
2021/03/06 08:11:09;;;;;;;87.75;30.30;;;;;;;1.16;62.32;101441.79;147818;1147;104473;-74
2021/03/06 08:14:38;;;;;;;110.60;38.47;;;;;;;1.22;62.24;101445.09;147805;1146;104522;-75
2021/03/06 08:17:41;;;;;;;39.85;16.25;;;;;;;1.30;62.10;101449.09;147768;1148;104539;-76
2021/03/06 08:20:45;;;;;;;91.65;31.25;;;;;;;1.29;62.48;101451.78;147466;1147;104474;-77
2021/03/06 08:23:48;;;;;;;49.63;20.57;;;;;;;1.38;61.80;101459.30;147496;1147;105000;-75
2021/03/06 08:27:11;;;;;;;81.90;33.70;;;;;;;1.45;62.30;101460.75;147774;1147;104591;-77
2021/03/06 08:30:28;;;;;;;38.30;16.35;;;;;;;1.54;62.07;101452.48;147854;1147;104545;-80
2021/03/06 08:33:31;;;;;;;32.48;12.98;;;;;;;1.61;61.18;101458.31;147735;1148;104447;-76
2021/03/06 08:36:34;;;;;;;55.28;21.25;;;;;;;1.65;60.87;101456.41;147589;1147;104515;-79
2021/03/06 08:39:37;;;;;;;52.65;22.77;;;;;;;1.68;61.37;101458.92;147869;1147;104934;-81
2021/03/06 08:42:42;;;;;;;13.48;6.45;;;;;;;1.68;60.09;101453.66;147762;1147;104700;-75
2021/03/06 08:45:45;;;;;;;20.73;10.73;;;;;;;1.64;60.01;101449.46;147843;1146;104551;-83
2021/03/06 08:48:48;;;;;;;19.48;9.10;;;;;;;1.74;61.01;101456.02;148006;1147;104535;-77
2021/03/06 08:51:53;;;;;;;36.80;17.07;;;;;;;1.82;60.30;101453.90;147831;1147;104454;-78
2021/03/06 08:54:57;;;;;;;23.17;11.13;;;;;;;1.93;59.07;101464.81;147973;1147;104507;-78
2021/03/06 08:58:05;;;;;;;40.90;20.55;;;;;;;2.00;59.20;101464.53;147543;1146;104642;-77
2021/03/06 09:01:08;;;;;;;14.77;6.43;;;;;;;2.04;58.49;101460.84;147599;1147;104447;-81
2021/03/06 09:04:11;;;;;;;14.35;6.50;;;;;;;2.00;59.28;101454.01;147802;1147;104460;-81
2021/03/06 09:07:32;;;;;;;8.65;4.47;;;;;;;2.01;56.58;101450.47;147742;1147;104491;-71
2021/03/06 09:10:38;;;;;;;20.43;11.13;;;;;;;2.06;58.49;101445.83;147802;1147;104544;-76
2021/03/06 09:13:41;;;;;;;16.75;10.23;;;;;;;2.12;57.31;101449.05;147711;1146;104620;-78
2021/03/06 09:16:49;;;;;;;13.00;5.63;;;;;;;2.16;55.53;101441.88;147566;1147;104588;-81
2021/03/06 09:20:00;;;;;;;5.83;3.40;;;;;;;2.08;55.57;101447.48;147794;1147;104460;-78
2021/03/06 09:23:04;;;;;;;10.35;4.15;;;;;;;2.03;56.21;101438.94;147750;1147;104941;-81
2021/03/06 09:26:09;;;;;;;45.08;20.08;;;;;;;2.09;57.84;101435.17;147704;1145;104554;-79
2021/03/06 09:29:12;;;;;;;17.73;9.03;;;;;;;2.28;57.09;101449.20;147853;1146;104661;-78
2021/03/06 09:32:15;;;;;;;153.47;59.18;;;;;;;2.34;58.87;101441.02;147739;1146;104809;-76
2021/03/06 09:35:20;;;;;;;217.10;78.35;;;;;;;2.43;58.71;101436.27;147599;1147;104451;-81
2021/03/06 09:38:24;;;;;;;93.97;31.90;;;;;;;2.49;56.89;101426.28;147751;1147;104455;-77
2021/03/06 09:41:30;;;;;;;331.38;83.70;;;;;;;2.56;57.36;101429.50;147827;1148;104451;-78
2021/03/06 09:44:33;;;;;;;658.65;174.45;;;;;;;2.66;57.31;101437.81;147799;1147;104625;-75
2021/03/06 09:47:45;;;;;;;214.10;53.50;;;;;;;2.69;57.36;101422.69;148153;1146;104427;-78
2021/03/06 09:50:48;;;;;;;299.65;90.55;;;;;;;2.69;57.69;101422.69;148090;1147;104858;-76
2021/03/06 09:53:59;;;;;;;231.32;84.17;;;;;;;2.78;57.84;101415.28;148020;1146;104473;-81
2021/03/06 09:57:05;;;;;;;623.85;252.45;;;;;;;2.88;57.96;101427.08;147996;1148;104464;-81
2021/03/06 10:00:20;;;;;;;91.67;31.17;;;;;;;2.95;55.03;101433.77;148108;1146;104540;-79
2021/03/06 10:03:31;;;;;;;271.05;95.15;;;;;;;2.95;57.03;101425.86;147696;1148;104902;-81
2021/03/06 10:06:36;;;;;;;42.65;16.32;;;;;;;3.01;56.86;101433.46;147664;1146;104963;-82
2021/03/06 10:09:41;;;;;;;381.55;133.80;;;;;;;3.10;58.61;101422.47;147489;1146;104447;-78
2021/03/06 10:12:46;;;;;;;172.75;61.70;;;;;;;3.20;58.59;101422.86;147814;1147;104456;-74
2021/03/06 10:15:49;;;;;;;163.22;63.05;;;;;;;3.27;58.00;101426.02;147482;1147;104583;-79
2021/03/06 10:18:53;;;;;;;371.10;190.73;;;;;;;3.30;57.65;101429.37;147667;1146;104546;-72
2021/03/06 10:22:03;;;;;;;116.45;51.65;;;;;;;3.38;58.22;101426.34;147634;1147;104528;-74
2021/03/06 10:25:08;;;;;;;32.10;14.90;;;;;;;3.45;56.08;101426.90;147659;1147;104538;-76
2021/03/06 10:28:14;;;;;;;18.12;8.65;;;;;;;3.40;56.99;101428.91;147648;1148;104550;-79
2021/03/06 10:31:45;;;;;;;9.30;5.33;;;;;;;3.39;54.52;101429.83;149077;1146;104630;-81
2021/03/06 10:34:49;;;;;;;101.82;48.15;;;;;;;3.37;56.72;101437.84;147801;1147;104550;-79
2021/03/06 10:37:53;;;;;;;44.00;21.33;;;;;;;3.40;56.66;101424.48;147862;1147;104451;-77
2021/03/06 10:40:58;;;;;;;29.60;15.63;;;;;;;3.43;55.65;101419.05;147676;1147;104468;-77
2021/03/06 10:44:01;;;;;;;84.43;43.73;;;;;;;3.49;56.96;101429.29;148089;1147;104550;-78
2021/03/06 10:47:05;;;;;;;27.35;15.90;;;;;;;3.63;56.95;101425.09;147849;1147;104626;-78
2021/03/06 10:50:21;;;;;;;17.40;10.32;;;;;;;3.73;57.31;101421.91;148167;1147;104539;-81
2021/03/06 10:53:27;;;;;;;18.90;10.43;;;;;;;3.95;55.68;101412.00;147953;1147;104473;-77
2021/03/06 10:56:31;;;;;;;11.15;7.03;;;;;;;4.14;55.98;101404.78;147676;1146;104468;-76
2021/03/06 10:59:35;;;;;;;32.90;20.75;;;;;;;4.24;56.11;101397.20;148064;1145;104468;-76
2021/03/06 11:02:39;;;;;;;33.48;19.87;;;;;;;4.38;55.36;101405.21;147980;1146;104628;-79
2021/03/06 11:05:44;;;;;;;11.35;5.65;;;;;;;4.38;54.38;101401.73;147944;1147;104547;-77
2021/03/06 11:09:00;;;;;;;19.35;10.05;;;;;;;4.27;55.70;101400.53;147605;1147;104543;-76
2021/03/06 11:12:17;;;;;;;19.77;9.87;;;;;;;4.40;54.32;101395.41;147665;1147;104824;-77
2021/03/06 11:15:24;;;;;;;11.40;4.80;;;;;;;4.67;53.49;101394.80;148124;1147;104445;-77
2021/03/06 11:18:27;;;;;;;12.53;5.90;;;;;;;4.87;53.60;101381.30;147758;1148;104545;-77
2021/03/06 11:21:30;;;;;;;22.20;11.53;;;;;;;4.97;50.58;101389.55;147945;1147;105144;-77
2021/03/06 11:24:33;;;;;;;42.60;21.25;;;;;;;5.06;54.08;101366.98;147693;1147;104452;-79
2021/03/06 11:27:47;;;;;;;31.82;14.60;;;;;;;5.24;52.75;101368.56;147966;1148;104892;-78
2021/03/06 11:30:50;;;;;;;21.50;11.12;;;;;;;5.34;54.15;101358.27;148168;1146;105004;-78
2021/03/06 11:33:54;;;;;;;22.98;12.50;;;;;;;5.48;53.62;101355.63;147815;1147;104451;-76
2021/03/06 11:36:57;;;;;;;15.88;7.85;;;;;;;5.39;53.59;101353.56;148173;1147;104477;-75
2021/03/06 11:40:01;;;;;;;228.88;120.47;;;;;;;5.38;52.64;101353.65;147765;1146;104495;-76
2021/03/06 11:43:05;;;;;;;25.90;12.90;;;;;;;5.34;47.75;101349.48;147830;1147;104453;-76
2021/03/06 11:46:09;;;;;;;16.75;8.90;;;;;;;5.27;52.04;101343.70;147763;1146;104538;-75
2021/03/06 11:49:12;;;;;;;62.30;35.65;;;;;;;5.26;53.27;101339.36;147538;1148;104535;-75
2021/03/06 11:52:15;;;;;;;173.55;112.20;;;;;;;5.39;53.35;101348.27;148060;1147;104443;-77
2021/03/06 11:55:18;;;;;;;31.97;17.90;;;;;;;5.59;51.96;101335.61;147918;1147;104546;-78
2021/03/06 11:58:21;;;;;;;26.07;20.32;;;;;;;5.51;50.37;101342.22;148033;1147;104546;-79
2021/03/06 12:01:25;;;;;;;19.90;14.95;;;;;;;5.24;49.18;101331.52;147847;1148;104590;-78
2021/03/06 12:04:28;;;;;;;8.80;4.60;;;;;;;5.08;51.13;101336.00;147621;1148;104630;-78
2021/03/06 12:07:31;;;;;;;9.05;5.00;;;;;;;4.96;50.84;101332.30;147872;1148;104512;-83
2021/03/06 12:10:34;;;;;;;6.75;3.70;;;;;;;4.99;50.91;101328.64;147577;1147;104623;-73
2021/03/06 12:13:38;;;;;;;6.50;3.22;;;;;;;5.04;48.36;101321.26;148275;1147;104458;-76
2021/03/06 12:16:41;;;;;;;4.10;2.47;;;;;;;5.02;49.67;101317.86;147909;1147;104528;-76
2021/03/06 12:19:44;;;;;;;12.23;8.80;;;;;;;5.17;49.87;101313.45;147989;1147;104527;-75
2021/03/06 12:22:48;;;;;;;5.08;3.33;;;;;;;5.16;45.30;101322.31;148019;1147;104468;-76
2021/03/06 12:25:51;;;;;;;4.00;2.65;;;;;;;4.76;43.47;101319.41;147901;1147;104453;-78
2021/03/06 12:28:54;;;;;;;6.25;4.42;;;;;;;4.59;48.05;101312.45;148150;1147;104534;-85
2021/03/06 12:31:57;;;;;;;7.55;4.10;;;;;;;4.52;50.05;101311.93;147642;1147;104455;-75
2021/03/06 12:35:01;;;;;;;6.20;3.83;;;;;;;4.51;50.04;101307.60;147755;1148;104503;-77
2021/03/06 12:38:04;;;;;;;11.30;7.58;;;;;;;4.53;49.46;101303.08;147777;1147;105125;-74
2021/03/06 12:41:08;;;;;;;22.52;13.90;;;;;;;4.53;49.85;101313.65;148005;1147;104495;-74
2021/03/06 12:44:11;;;;;;;28.35;16.52;;;;;;;4.50;50.50;101305.88;148165;1146;104464;-73
2021/03/06 12:47:15;;;;;;;19.57;7.43;;;;;;;4.44;48.98;101303.59;147610;1147;104473;-75
2021/03/06 12:50:18;;;;;;;24.87;12.00;;;;;;;4.40;48.21;101296.79;147586;1147;104505;-85
2021/03/06 12:53:22;;;;;;;11.43;4.72;;;;;;;4.42;50.06;101293.11;147823;1147;104492;-75
2021/03/06 12:56:25;;;;;;;23.93;15.40;;;;;;;4.42;48.63;101294.91;147900;1147;104553;-74
2021/03/06 12:59:28;;;;;;;15.48;9.28;;;;;;;4.35;49.23;101282.98;148021;1147;104469;-73
2021/03/06 13:02:31;;;;;;;13.45;9.90;;;;;;;4.25;49.16;101283.53;147632;1148;104517;-74
2021/03/06 13:05:34;;;;;;;15.85;9.28;;;;;;;4.16;48.98;101276.12;147476;1148;104596;-73
2021/03/06 13:08:38;;;;;;;16.30;9.45;;;;;;;4.08;48.93;101284.47;147783;1147;104550;-75
2021/03/06 13:11:41;;;;;;;13.88;8.78;;;;;;;4.00;48.52;101275.26;147638;1147;104456;-79
2021/03/06 13:14:44;;;;;;;18.55;9.90;;;;;;;3.94;49.80;101271.16;147538;1146;104472;-74
2021/03/06 13:17:48;;;;;;;12.65;6.92;;;;;;;3.96;49.22;101276.38;147676;1148;104454;-74
2021/03/06 13:20:51;;;;;;;19.40;10.88;;;;;;;3.86;47.78;101276.88;147468;1147;104632;-74
2021/03/06 13:23:54;;;;;;;111.22;44.38;;;;;;;3.90;49.15;101270.48;147424;1147;104473;-74
2021/03/06 13:26:57;;;;;;;60.57;23.30;;;;;;;3.94;46.95;101271.16;147613;1146;104452;-74
2021/03/06 13:30:00;;;;;;;16.95;6.97;;;;;;;3.89;47.32;101286.44;147474;1147;104658;-76
2021/03/06 13:33:04;;;;;;;11.18;5.05;;;;;;;3.93;48.73;101278.25;147821;1147;104539;-77
2021/03/06 13:36:08;;;;;;;7.27;3.63;;;;;;;3.99;47.51;101274.41;147947;1147;104521;-72
2021/03/06 13:39:11;;;;;;;7.55;3.83;;;;;;;4.08;48.94;101262.47;147909;1147;104480;-74
2021/03/06 13:42:15;;;;;;;5.58;3.40;;;;;;;4.23;48.17;101266.04;148073;1148;104467;-75
2021/03/06 13:45:19;;;;;;;57.05;25.90;;;;;;;4.46;49.77;101257.63;147744;1146;104553;-74
2021/03/06 13:48:22;;;;;;;68.02;29.18;;;;;;;4.75;49.21;101246.30;147870;1146;104514;-75